Metar Cercanos

 

LEPA - Palma De Mallorc, Spain
Distance from station: ONO 38km
Actualización: Sun, 22-May-2022 6:00am CEST
Despejado
Despejado
 Viento del varies
Viento: varies 2 km/h
Temperatura: 14°C
Rocío: 11°C
Humedad: 82%
Barómetro: 1015 hPa
Resumen: Despejado
Visibility: greater than 10 km
2022/05/22 04:00 LEPA 220400Z VRB01KT CAVOK 14/11 Q1015 NOSIG
LEMH - Mahon/Menorca Is, Spain
Distance from station: ENE 105km
Actualización: Sun, 22-May-2022 6:00am CEST
Despejado
Despejado
 Viento del SO
Viento: SO 13 km/h
Temperatura: 18°C
Rocío: 17°C
Humedad: 94%
Barómetro: 1015 hPa
Resumen: Despejado
Visibility: greater than 10 km
2022/05/22 04:00 LEMH 220400Z 23007KT CAVOK 18/17 Q1015
 
LEIB - Ibiza/Es Codola, Spain
Distance from station: OSO 165km
Actualización: Sun, 22-May-2022 6:00am CEST
Despejado
Despejado
 Viento del varies
Viento: varies 4 km/h
Temperatura: 17°C
Rocío: 13°C
Humedad: 77%
Barómetro: 1014 hPa
Resumen: Despejado
Visibility: greater than 10 km
2022/05/22 04:00 LEIB 220400Z VRB02KT CAVOK 17/13 Q1014 NOSIG
LEBL - Barcelona Airpor, Spain
Distance from station: NNO 225km
Actualización: Sun, 22-May-2022 6:00am CEST
Despejado
Despejado
 Viento del NO
Viento: NO 6 km/h
Temperatura: 19°C
Rocío: 9°C
Humedad: 52%
Barómetro: 1014 hPa
Resumen: Despejado
Visibility: greater than 10 km
2022/05/22 04:00 LEBL 220400Z 31003KT CAVOK 19/09 Q1014 NOSIG
 
LEVC - Valencia (civ/Mi, Spain
Distance from station: NO 188km
Actualización: Sun, 22-May-2022 6:00am CEST
Despejado
Despejado
 Viento del ONO
Viento: ONO 6 km/h
Temperatura: 15°C
Rocío: 13°C
Humedad: 88%
Barómetro: 1014 hPa
Resumen: Despejado
Visibility: greater than 10 km
2022/05/22 04:00 LEVC 220400Z 30003KT CAVOK 15/13 Q1014 NOSIG
LEGE - Gerona/Costa Bra, Spain
Distance from station: N 276km
Actualización: Sun, 22-May-2022 6:00am CEST
Parcialmente nuboso
Parcialmente nuboso
 Viento del varies
Viento: varies 4 km/h
Temperatura: 13°C
Rocío: 12°C
Humedad: 94%
Barómetro: 1013 hPa
Clouds: Parcialmente nuboso
Visibility: 8 km
2022/05/22 04:00 LEGE 220400Z VRB02KT 8000 NSC 13/12 Q1013
 
LEAL - Alicante/El Alte, Spain
Distance from station: OSO 344km
Actualización: Sun, 22-May-2022 6:00am CEST
Despejado
Despejado
 Viento del NO
Viento: NO 11 km/h
Temperatura: 20°C
Rocío: 7°C
Humedad: 43%
Barómetro: 1014 hPa
Resumen: Despejado
Visibility: greater than 10 km
2022/05/22 04:00 LEAL 220400Z 31006KT CAVOK 20/07 Q1014 NOSIG
LEAM - Almeria Airport, Spain
Distance from station: SSO 56km
Actualización: Sun, 22-May-2022 6:00am CEST
Despejado
Despejado
 Viento del NNO
Viento: NNO 28 km/h
Temperatura: 24°C
Rocío: 6°C
Humedad: 31%
Barómetro: 1013 hPa
Resumen: Despejado
Visibility: greater than 10 km
2022/05/22 04:00 LEAM 220400Z 33015KT CAVOK 24/06 Q1013
 
LEZG - Zaragoza (mil/Ci, Spain
Distance from station: NO 431km
Actualización: Sun, 22-May-2022 6:00am CEST
Despejado
Despejado
 Viento del E
Viento: E 7 km/h
Temperatura: 21°C
Rocío: 13°C
Humedad: 60%
Barómetro: 1013 hPa
Resumen: Despejado
Visibility: greater than 10 km
2022/05/22 04:00 LEZG 220400Z 08004KT CAVOK 21/13 Q1013
LEMD - Madrid/Barajas, Spain
Distance from station: ONO 234km
Actualización: Sun, 22-May-2022 6:00am CEST
Despejado
Despejado
 Viento del N
Viento: N 6 km/h
Temperatura: 20°C
Rocío: 10°C
Humedad: 53%
Barómetro: 1015 hPa
Resumen: Despejado
Visibility: greater than 10 km
2022/05/22 04:00 LEMD 220400Z 35003KT CAVOK 20/10 Q1015 NOSIG
 
LEGR - Granada Airport, Spain
Distance from station: OSO 62km
Actualización: Sun, 22-May-2022 6:00am CEST
Despejado
Despejado
 Viento del calm
Viento: Calma
Temperatura: 21°C
Rocío: 4°C
Humedad: 33%
Barómetro: 1016 hPa
Resumen: Despejado
Visibility: greater than 10 km
2022/05/22 04:00 LEGR 220400Z 00000KT CAVOK 21/04 Q1016
LEMG - Malaga (civ/Mil), Spain
Distance from station: OSO 227km
Actualización: Sun, 22-May-2022 6:00am CEST
Despejado
Despejado
 Viento del varies
Viento: varies 4 km/h
Temperatura: 20°C
Rocío: 15°C
Humedad: 73%
Barómetro: 1014 hPa
Resumen: Despejado
Visibility: greater than 10 km
2022/05/22 04:00 LEMG 220400Z VRB02KT CAVOK 20/15 Q1014 NOSIG
 
LEZL - Sevilla (civ/Mil, Spain
Distance from station: S 318km
Actualización: Sun, 22-May-2022 6:20am CEST
Muy nuboso
Muy nuboso
 Viento del SO
Viento: SO 13 km/h
Temperatura: 19°C
Rocío: 15°C
Humedad: 78%
Barómetro: 1016 hPa
Clouds: Muy nuboso
Visibility: 10 km
Cloud details: Muy nuboso 488 m
2022/05/22 04:20 LEZL 220420Z 22007KT 170V260 9999 BKN016 19/15 Q1016 NOSIG
LEVT - Vitoria, Spain
Distance from station: NO 226km
Actualización: Sun, 22-May-2022 6:00am CEST
Despejado
Despejado
 Viento del N
Viento: N 7 km/h
Temperatura: 17°C
Rocío: 15°C
Humedad: 88%
Barómetro: 1014 hPa
Resumen: Despejado
Visibility: greater than 10 km
2022/05/22 04:00 LEVT 220400Z 01004KT CAVOK 17/15 Q1014
 
LEBB - Bilbao/Sondica, Spain
Distance from station: NNO 235km
Actualización: Sun, 22-May-2022 6:00am CEST
Despejado
Despejado
 Viento del E
Viento: E 7 km/h
Temperatura: 17°C
Rocío: 16°C
Humedad: 94%
Barómetro: 1013 hPa
Resumen: Despejado
Visibility: greater than 10 km
2022/05/22 04:00 LEBB 220400Z 09004KT 070V130 CAVOK 17/16 Q1013 NOSIG
LESO - San Sebastian/Fu, Spain
Distance from station: N 231km
Actualización: Sun, 22-May-2022 6:00am CEST
Few Clouds
Few Clouds
 Viento del NE
Viento: NE 9 km/h
Temperatura: 18°C
Rocío: 18°C
Humedad: 100%
Barómetro: 1013 hPa
Clouds: Few Clouds
Visibility: 10 km
Cloud details: Few Clouds 213 m
2022/05/22 04:00 LESO 220400Z 04005KT 360V110 9999 FEW007 18/18 Q1013
 
LEVD - Valladolid(Mil/C, Spain
Distance from station: ONO 239km
Actualización: Sun, 22-May-2022 6:00am CEST
Parcialmente nuboso
Parcialmente nuboso
 Viento del S
Viento: S 7 km/h
Temperatura: 15°C
Rocío: 12°C
Humedad: 82%
Barómetro: 1015 hPa
Clouds: Parcialmente nuboso
Visibility: 10 km
Cloud details: Parcialmente nuboso 1067 m
2022/05/22 04:00 LEVD 220400Z AUTO 19004KT 160V230 9999 SCT035 15/12 Q1015
LESA - Salamanca (civ/M, Spain
Distance from station: ONO 349km
Actualización: Sun, 22-May-2022 6:00am CEST
Despejado
Despejado
 Viento del OSO
Viento: OSO 9 km/h
Temperatura: 15°C
Rocío: 14°C
Humedad: 94%
Barómetro: 1015 hPa
Clouds: Despejado
Visibility: 7 km
2022/05/22 04:00 LESA 220400Z AUTO 25005KT 7000 NCD 15/14 Q1015
 
LEXJ - Santander/Paraya, Spain
Distance from station: NNO 247km
Actualización: Sun, 22-May-2022 6:00am CEST
Parcialmente nuboso
Parcialmente nuboso
 Viento del ESE
Viento: ESE 6 km/h
Temperatura: 17°C
Rocío: 16°C
Humedad: 94%
Barómetro: 1011 hPa
Clouds: Parcialmente nuboso
Visibility: 9 km
2022/05/22 04:00 LEXJ 220400Z 12003KT 050V170 9000 NSC 17/16 Q1011
LEAS - Asturias/Aviles, Spain
Distance from station: NO 214km
Actualización: Sun, 22-May-2022 6:00am CEST
Few Clouds
Few Clouds
 Viento del ONO
Viento: ONO 17 km/h
Temperatura: 16°C
Rocío: 15°C
Humedad: 94%
Barómetro: 1011 hPa
Clouds: Few Clouds
Visibility: 7 km
Cloud details: Few Clouds 305 m
Few Clouds 1219 m
2022/05/22 04:00 LEAS 220400Z 30009KT 7000 FEW010 FEW040TCU 16/15 Q1011 NOSIG
 
LECO - La Coruna/Alvedr, Spain
Distance from station: ONO 222km
Actualización: Sun, 22-May-2022 6:00am CEST
Despejado
Despejado
 Viento del varies
Viento: varies 2 km/h
Temperatura: 17°C
Rocío: 16°C
Humedad: 94%
Barómetro: 1012 hPa
Resumen: Despejado
Visibility: greater than 10 km
2022/05/22 04:00 LECO 220400Z VRB01KT CAVOK 17/16 Q1012 RERA NOSIG
LEVX - Vigo/Peinador, Spain
Distance from station: O 214km
Actualización: Sun, 22-May-2022 6:00am CEST
Thunderstorm, Cubierto
Thunderstorm, Cubierto
 Viento del varies
Viento: varies 4 km/h
Temperatura: 16°C
Rocío: 16°C
Humedad: 100%
Barómetro: 1013 hPa
Resumen: Thunderstorm
Clouds: Cubierto
Visibility: 9 km
Cloud details: Muy nuboso 152 m
Cubierto 610 m
2022/05/22 04:00 LEVX 220400Z VRB02KT 9000 TS BKN005CB OVC020 16/16 Q1013 NOSIG